sensor_id;sensor_type;location;lat;lon;timestamp;temperature;humidity
20658;DHT22;10488;50.846;4.078;2023-06-10T00:00:13;21.20;99.90
20658;DHT22;10488;50.846;4.078;2023-06-10T00:02:41;21.20;99.90
20658;DHT22;10488;50.846;4.078;2023-06-10T00:05:07;21.20;99.90
20658;DHT22;10488;50.846;4.078;2023-06-10T00:07:33;21.10;99.90
20658;DHT22;10488;50.846;4.078;2023-06-10T00:10:06;21.00;99.90
20658;DHT22;10488;50.846;4.078;2023-06-10T00:12:32;21.00;99.90
20658;DHT22;10488;50.846;4.078;2023-06-10T00:15:03;21.00;99.90
20658;DHT22;10488;50.846;4.078;2023-06-10T00:17:30;21.00;99.90
20658;DHT22;10488;50.846;4.078;2023-06-10T00:19:56;21.00;99.90
20658;DHT22;10488;50.846;4.078;2023-06-10T00:22:23;20.90;99.90
20658;DHT22;10488;50.846;4.078;2023-06-10T00:24:49;20.90;99.90
20658;DHT22;10488;50.846;4.078;2023-06-10T00:27:16;20.80;99.90
20658;DHT22;10488;50.846;4.078;2023-06-10T00:29:42;20.80;99.90
20658;DHT22;10488;50.846;4.078;2023-06-10T00:32:08;20.80;99.90
20658;DHT22;10488;50.846;4.078;2023-06-10T00:34:33;20.70;99.90
20658;DHT22;10488;50.846;4.078;2023-06-10T00:36:59;20.70;99.90
20658;DHT22;10488;50.846;4.078;2023-06-10T00:39:25;20.60;99.90
20658;DHT22;10488;50.846;4.078;2023-06-10T00:41:51;20.70;99.90
20658;DHT22;10488;50.846;4.078;2023-06-10T00:44:16;20.60;99.90
20658;DHT22;10488;50.846;4.078;2023-06-10T00:46:42;20.70;99.90
20658;DHT22;10488;50.846;4.078;2023-06-10T00:49:09;20.60;99.90
20658;DHT22;10488;50.846;4.078;2023-06-10T00:51:35;20.60;99.90
20658;DHT22;10488;50.846;4.078;2023-06-10T00:54:01;20.60;99.90
20658;DHT22;10488;50.846;4.078;2023-06-10T00:56:27;20.50;99.90
20658;DHT22;10488;50.846;4.078;2023-06-10T00:58:54;20.50;99.90
20658;DHT22;10488;50.846;4.078;2023-06-10T01:01:20;20.40;99.90
20658;DHT22;10488;50.846;4.078;2023-06-10T01:03:46;20.30;99.90
20658;DHT22;10488;50.846;4.078;2023-06-10T01:09:18;20.40;99.90
20658;DHT22;10488;50.846;4.078;2023-06-10T01:14:36;20.30;99.90
20658;DHT22;10488;50.846;4.078;2023-06-10T01:17:02;20.20;99.90
20658;DHT22;10488;50.846;4.078;2023-06-10T01:19:28;20.10;99.90
20658;DHT22;10488;50.846;4.078;2023-06-10T01:21:57;20.00;99.90
20658;DHT22;10488;50.846;4.078;2023-06-10T01:24:27;20.00;99.90
20658;DHT22;10488;50.846;4.078;2023-06-10T01:26:53;20.00;99.90
20658;DHT22;10488;50.846;4.078;2023-06-10T01:29:40;20.00;99.90
20658;DHT22;10488;50.846;4.078;2023-06-10T01:32:34;20.00;99.90
20658;DHT22;10488;50.846;4.078;2023-06-10T01:35:03;20.00;99.90
20658;DHT22;10488;50.846;4.078;2023-06-10T01:37:31;20.00;99.90
20658;DHT22;10488;50.846;4.078;2023-06-10T01:39:58;19.90;99.90
20658;DHT22;10488;50.846;4.078;2023-06-10T01:42:25;19.90;99.90
20658;DHT22;10488;50.846;4.078;2023-06-10T01:44:51;19.90;99.90
20658;DHT22;10488;50.846;4.078;2023-06-10T01:47:17;20.00;99.90
20658;DHT22;10488;50.846;4.078;2023-06-10T01:49:43;20.00;99.90
20658;DHT22;10488;50.846;4.078;2023-06-10T01:52:08;19.90;99.90
20658;DHT22;10488;50.846;4.078;2023-06-10T01:54:34;19.90;99.90
20658;DHT22;10488;50.846;4.078;2023-06-10T01:57:01;19.90;99.90
20658;DHT22;10488;50.846;4.078;2023-06-10T01:59:27;19.90;99.90
20658;DHT22;10488;50.846;4.078;2023-06-10T02:01:52;20.00;99.90
20658;DHT22;10488;50.846;4.078;2023-06-10T02:04:18;19.90;99.90
20658;DHT22;10488;50.846;4.078;2023-06-10T02:06:44;19.90;99.90
20658;DHT22;10488;50.846;4.078;2023-06-10T02:09:10;19.80;99.90
20658;DHT22;10488;50.846;4.078;2023-06-10T02:11:36;19.80;99.90
20658;DHT22;10488;50.846;4.078;2023-06-10T02:14:02;19.80;99.90
20658;DHT22;10488;50.846;4.078;2023-06-10T02:16:27;19.80;99.90
20658;DHT22;10488;50.846;4.078;2023-06-10T02:18:53;19.80;99.90
20658;DHT22;10488;50.846;4.078;2023-06-10T02:21:20;19.80;99.90
20658;DHT22;10488;50.846;4.078;2023-06-10T02:23:45;19.80;99.90
20658;DHT22;10488;50.846;4.078;2023-06-10T02:26:11;19.80;99.90
20658;DHT22;10488;50.846;4.078;2023-06-10T02:28:37;19.80;99.90
20658;DHT22;10488;50.846;4.078;2023-06-10T02:31:02;19.70;99.90
20658;DHT22;10488;50.846;4.078;2023-06-10T02:33:28;19.70;99.90
20658;DHT22;10488;50.846;4.078;2023-06-10T02:35:54;19.70;99.90
20658;DHT22;10488;50.846;4.078;2023-06-10T02:38:20;19.60;99.90
20658;DHT22;10488;50.846;4.078;2023-06-10T02:40:46;19.60;99.90
20658;DHT22;10488;50.846;4.078;2023-06-10T02:43:11;19.50;99.90
20658;DHT22;10488;50.846;4.078;2023-06-10T02:45:37;19.50;99.90
20658;DHT22;10488;50.846;4.078;2023-06-10T02:48:03;19.50;99.90
20658;DHT22;10488;50.846;4.078;2023-06-10T02:50:28;19.60;99.90
20658;DHT22;10488;50.846;4.078;2023-06-10T02:52:54;19.40;99.90
20658;DHT22;10488;50.846;4.078;2023-06-10T02:55:20;19.40;99.90
20658;DHT22;10488;50.846;4.078;2023-06-10T02:57:45;19.40;99.90
20658;DHT22;10488;50.846;4.078;2023-06-10T03:00:11;19.40;99.90
20658;DHT22;10488;50.846;4.078;2023-06-10T03:02:39;19.40;99.90
20658;DHT22;10488;50.846;4.078;2023-06-10T03:05:06;19.30;99.90
20658;DHT22;10488;50.846;4.078;2023-06-10T03:07:36;19.20;99.90
20658;DHT22;10488;50.846;4.078;2023-06-10T03:10:01;19.20;99.90
20658;DHT22;10488;50.846;4.078;2023-06-10T03:12:27;19.20;99.90
20658;DHT22;10488;50.846;4.078;2023-06-10T03:14:53;19.10;99.90
20658;DHT22;10488;50.846;4.078;2023-06-10T03:17:18;19.10;99.90
20658;DHT22;10488;50.846;4.078;2023-06-10T03:19:44;19.10;99.90
20658;DHT22;10488;50.846;4.078;2023-06-10T03:22:14;19.20;99.90
20658;DHT22;10488;50.846;4.078;2023-06-10T03:24:40;19.10;99.90
20658;DHT22;10488;50.846;4.078;2023-06-10T03:27:10;19.10;99.90
20658;DHT22;10488;50.846;4.078;2023-06-10T03:29:39;19.20;99.90
20658;DHT22;10488;50.846;4.078;2023-06-10T03:32:05;19.20;99.90
20658;DHT22;10488;50.846;4.078;2023-06-10T03:34:31;19.10;99.90
20658;DHT22;10488;50.846;4.078;2023-06-10T03:36:57;19.10;99.90
20658;DHT22;10488;50.846;4.078;2023-06-10T03:39:23;19.00;99.90
20658;DHT22;10488;50.846;4.078;2023-06-10T03:41:50;19.00;99.90
20658;DHT22;10488;50.846;4.078;2023-06-10T03:44:15;19.00;99.90
20658;DHT22;10488;50.846;4.078;2023-06-10T03:46:41;19.10;99.90
20658;DHT22;10488;50.846;4.078;2023-06-10T03:49:07;19.00;99.90
20658;DHT22;10488;50.846;4.078;2023-06-10T03:51:32;19.00;99.90
20658;DHT22;10488;50.846;4.078;2023-06-10T03:53:58;19.00;99.90
20658;DHT22;10488;50.846;4.078;2023-06-10T03:56:24;19.00;99.90
20658;DHT22;10488;50.846;4.078;2023-06-10T03:58:49;19.00;99.90
20658;DHT22;10488;50.846;4.078;2023-06-10T04:01:15;19.00;99.90
20658;DHT22;10488;50.846;4.078;2023-06-10T04:03:43;19.00;99.90
20658;DHT22;10488;50.846;4.078;2023-06-10T04:06:09;19.00;99.90
20658;DHT22;10488;50.846;4.078;2023-06-10T04:08:35;19.10;99.90
20658;DHT22;10488;50.846;4.078;2023-06-10T04:11:01;19.10;99.90
20658;DHT22;10488;50.846;4.078;2023-06-10T04:13:27;19.10;99.90
20658;DHT22;10488;50.846;4.078;2023-06-10T04:15:53;19.10;99.90
20658;DHT22;10488;50.846;4.078;2023-06-10T04:18:20;19.00;99.90
20658;DHT22;10488;50.846;4.078;2023-06-10T04:20:47;19.10;99.90
20658;DHT22;10488;50.846;4.078;2023-06-10T04:23:13;19.10;99.90
20658;DHT22;10488;50.846;4.078;2023-06-10T04:25:38;19.20;99.90
20658;DHT22;10488;50.846;4.078;2023-06-10T04:28:04;19.20;99.90
20658;DHT22;10488;50.846;4.078;2023-06-10T04:30:30;19.20;99.90
20658;DHT22;10488;50.846;4.078;2023-06-10T04:32:57;19.30;99.90
20658;DHT22;10488;50.846;4.078;2023-06-10T04:35:22;19.30;99.90
20658;DHT22;10488;50.846;4.078;2023-06-10T04:37:48;19.30;99.90
20658;DHT22;10488;50.846;4.078;2023-06-10T04:40:14;19.30;99.90
20658;DHT22;10488;50.846;4.078;2023-06-10T04:42:41;19.30;99.90
20658;DHT22;10488;50.846;4.078;2023-06-10T04:45:07;19.30;99.90
20658;DHT22;10488;50.846;4.078;2023-06-10T04:47:34;19.40;99.90
20658;DHT22;10488;50.846;4.078;2023-06-10T04:50:00;19.40;99.90
20658;DHT22;10488;50.846;4.078;2023-06-10T04:52:26;19.50;99.90
20658;DHT22;10488;50.846;4.078;2023-06-10T04:54:53;19.50;99.90
20658;DHT22;10488;50.846;4.078;2023-06-10T04:57:19;19.60;99.90
20658;DHT22;10488;50.846;4.078;2023-06-10T04:59:46;19.70;99.90
20658;DHT22;10488;50.846;4.078;2023-06-10T05:02:12;19.70;99.90
20658;DHT22;10488;50.846;4.078;2023-06-10T05:04:37;19.90;99.90
20658;DHT22;10488;50.846;4.078;2023-06-10T05:07:03;19.90;99.90
20658;DHT22;10488;50.846;4.078;2023-06-10T05:09:29;19.90;99.90
20658;DHT22;10488;50.846;4.078;2023-06-10T05:11:55;19.90;99.90
20658;DHT22;10488;50.846;4.078;2023-06-10T05:14:21;19.80;99.90
20658;DHT22;10488;50.846;4.078;2023-06-10T05:16:48;19.80;99.90
20658;DHT22;10488;50.846;4.078;2023-06-10T05:19:14;19.80;99.90
20658;DHT22;10488;50.846;4.078;2023-06-10T05:21:41;19.90;99.90
20658;DHT22;10488;50.846;4.078;2023-06-10T05:24:07;19.90;99.90
20658;DHT22;10488;50.846;4.078;2023-06-10T05:26:33;20.00;99.90
20658;DHT22;10488;50.846;4.078;2023-06-10T05:29:03;20.10;99.90
20658;DHT22;10488;50.846;4.078;2023-06-10T05:31:29;20.20;99.90
20658;DHT22;10488;50.846;4.078;2023-06-10T05:33:55;20.30;99.90
20658;DHT22;10488;50.846;4.078;2023-06-10T05:36:21;20.80;99.90
20658;DHT22;10488;50.846;4.078;2023-06-10T05:38:47;21.40;99.90
20658;DHT22;10488;50.846;4.078;2023-06-10T05:41:13;22.30;99.90
20658;DHT22;10488;50.846;4.078;2023-06-10T05:43:39;22.90;99.90
20658;DHT22;10488;50.846;4.078;2023-06-10T05:46:05;23.90;99.90
20658;DHT22;10488;50.846;4.078;2023-06-10T05:48:31;24.40;99.90
20658;DHT22;10488;50.846;4.078;2023-06-10T05:50:56;24.80;99.90
20658;DHT22;10488;50.846;4.078;2023-06-10T05:53:22;25.40;99.90
20658;DHT22;10488;50.846;4.078;2023-06-10T09:23:41;29.40;99.90
20658;DHT22;10488;50.846;4.078;2023-06-10T09:26:10;29.70;99.90
20658;DHT22;10488;50.846;4.078;2023-06-10T09:28:36;29.80;99.90
20658;DHT22;10488;50.846;4.078;2023-06-10T09:31:04;30.20;99.90
20658;DHT22;10488;50.846;4.078;2023-06-10T09:33:30;30.60;99.90
20658;DHT22;10488;50.846;4.078;2023-06-10T09:35:56;30.80;99.90
20658;DHT22;10488;50.846;4.078;2023-06-10T09:38:29;31.10;99.90
20658;DHT22;10488;50.846;4.078;2023-06-10T09:42:35;31.00;99.90
20658;DHT22;10488;50.846;4.078;2023-06-10T09:45:03;30.90;99.90
20658;DHT22;10488;50.846;4.078;2023-06-10T09:47:29;31.00;99.90
20658;DHT22;10488;50.846;4.078;2023-06-10T09:49:55;30.80;99.90
20658;DHT22;10488;50.846;4.078;2023-06-10T09:52:24;31.20;99.90
20658;DHT22;10488;50.846;4.078;2023-06-10T09:54:51;31.90;99.90
20658;DHT22;10488;50.846;4.078;2023-06-10T09:57:18;31.80;99.90
20658;DHT22;10488;50.846;4.078;2023-06-10T09:59:45;32.40;99.90
20658;DHT22;10488;50.846;4.078;2023-06-10T10:02:15;31.80;99.90
20658;DHT22;10488;50.846;4.078;2023-06-10T10:04:41;30.90;99.90
20658;DHT22;10488;50.846;4.078;2023-06-10T10:07:08;30.50;99.90
20658;DHT22;10488;50.846;4.078;2023-06-10T10:09:36;30.10;99.90
20658;DHT22;10488;50.846;4.078;2023-06-10T10:12:04;29.80;99.90
20658;DHT22;10488;50.846;4.078;2023-06-10T10:14:32;30.00;99.90
20658;DHT22;10488;50.846;4.078;2023-06-10T10:17:00;30.20;99.90
20658;DHT22;10488;50.846;4.078;2023-06-10T10:19:31;30.20;99.90
20658;DHT22;10488;50.846;4.078;2023-06-10T10:22:24;30.30;99.90
20658;DHT22;10488;50.846;4.078;2023-06-10T10:24:53;30.50;99.90
20658;DHT22;10488;50.846;4.078;2023-06-10T10:27:26;31.00;99.90
20658;DHT22;10488;50.846;4.078;2023-06-10T10:29:54;30.50;99.90
20658;DHT22;10488;50.846;4.078;2023-06-10T10:32:27;30.30;99.90
20658;DHT22;10488;50.846;4.078;2023-06-10T10:35:03;30.30;99.90
20658;DHT22;10488;50.846;4.078;2023-06-10T10:37:32;30.60;99.90
20658;DHT22;10488;50.846;4.078;2023-06-10T10:40:00;30.20;99.90
20658;DHT22;10488;50.846;4.078;2023-06-10T10:42:27;30.40;99.90
20658;DHT22;10488;50.846;4.078;2023-06-10T10:44:53;30.90;99.90
20658;DHT22;10488;50.846;4.078;2023-06-10T10:47:27;31.30;99.90
20658;DHT22;10488;50.846;4.078;2023-06-10T10:49:55;30.90;99.90
20658;DHT22;10488;50.846;4.078;2023-06-10T10:52:24;30.70;99.90
20658;DHT22;10488;50.846;4.078;2023-06-10T10:54:53;30.30;99.90
20658;DHT22;10488;50.846;4.078;2023-06-10T10:57:19;30.20;99.90
20658;DHT22;10488;50.846;4.078;2023-06-10T11:02:42;30.20;99.90
20658;DHT22;10488;50.846;4.078;2023-06-10T11:05:15;30.50;99.90
20658;DHT22;10488;50.846;4.078;2023-06-10T11:07:52;30.80;99.90
20658;DHT22;10488;50.846;4.078;2023-06-10T11:10:31;31.10;99.90
20658;DHT22;10488;50.846;4.078;2023-06-10T11:12:57;30.90;99.90
20658;DHT22;10488;50.846;4.078;2023-06-10T11:15:29;30.70;99.90
20658;DHT22;10488;50.846;4.078;2023-06-10T11:18:20;31.00;99.90
20658;DHT22;10488;50.846;4.078;2023-06-10T11:26:29;31.30;99.90
20658;DHT22;10488;50.846;4.078;2023-06-10T11:31:32;31.00;99.90
20658;DHT22;10488;50.846;4.078;2023-06-10T11:34:03;31.00;99.90
20658;DHT22;10488;50.846;4.078;2023-06-10T11:36:31;31.10;99.90
20658;DHT22;10488;50.846;4.078;2023-06-10T11:38:59;31.40;99.90
20658;DHT22;10488;50.846;4.078;2023-06-10T11:41:26;31.10;99.90
20658;DHT22;10488;50.846;4.078;2023-06-10T11:43:52;30.90;99.90
20658;DHT22;10488;50.846;4.078;2023-06-10T11:46:19;30.80;99.90
20658;DHT22;10488;50.846;4.078;2023-06-10T11:48:55;30.90;99.90
20658;DHT22;10488;50.846;4.078;2023-06-10T11:51:21;30.80;99.90
20658;DHT22;10488;50.846;4.078;2023-06-10T11:53:48;30.50;99.90
20658;DHT22;10488;50.846;4.078;2023-06-10T11:56:19;30.60;99.90
20658;DHT22;10488;50.846;4.078;2023-06-10T11:58:45;30.80;99.90
20658;DHT22;10488;50.846;4.078;2023-06-10T12:01:10;30.90;99.90
20658;DHT22;10488;50.846;4.078;2023-06-10T12:03:37;30.80;99.90
20658;DHT22;10488;50.846;4.078;2023-06-10T12:06:05;30.80;99.90
20658;DHT22;10488;50.846;4.078;2023-06-10T12:08:31;30.80;99.90
20658;DHT22;10488;50.846;4.078;2023-06-10T12:10:57;31.00;99.90
20658;DHT22;10488;50.846;4.078;2023-06-10T12:13:27;31.10;99.90
20658;DHT22;10488;50.846;4.078;2023-06-10T12:15:53;31.20;99.90
20658;DHT22;10488;50.846;4.078;2023-06-10T12:18:23;31.00;99.90
20658;DHT22;10488;50.846;4.078;2023-06-10T12:20:49;30.70;99.90
20658;DHT22;10488;50.846;4.078;2023-06-10T12:23:16;30.80;99.90
20658;DHT22;10488;50.846;4.078;2023-06-10T12:25:53;30.60;99.90
20658;DHT22;10488;50.846;4.078;2023-06-10T12:28:26;30.50;99.90
20658;DHT22;10488;50.846;4.078;2023-06-10T12:31:05;30.60;99.90
20658;DHT22;10488;50.846;4.078;2023-06-10T12:33:31;30.70;99.90
20658;DHT22;10488;50.846;4.078;2023-06-10T12:35:56;30.70;99.90
20658;DHT22;10488;50.846;4.078;2023-06-10T12:38:23;30.70;99.90
20658;DHT22;10488;50.846;4.078;2023-06-10T12:40:50;30.80;99.90
20658;DHT22;10488;50.846;4.078;2023-06-10T12:43:25;31.10;99.90
20658;DHT22;10488;50.846;4.078;2023-06-10T12:45:51;31.30;99.90
20658;DHT22;10488;50.846;4.078;2023-06-10T12:48:24;30.90;99.90
20658;DHT22;10488;50.846;4.078;2023-06-10T12:50:53;30.70;99.90
20658;DHT22;10488;50.846;4.078;2023-06-10T12:53:20;30.80;99.90
20658;DHT22;10488;50.846;4.078;2023-06-10T12:55:47;31.00;99.90
20658;DHT22;10488;50.846;4.078;2023-06-10T12:58:13;31.10;99.90
20658;DHT22;10488;50.846;4.078;2023-06-10T13:00:39;31.30;99.90
20658;DHT22;10488;50.846;4.078;2023-06-10T13:03:06;31.40;99.90
20658;DHT22;10488;50.846;4.078;2023-06-10T13:05:32;31.60;99.90
20658;DHT22;10488;50.846;4.078;2023-06-10T13:07:59;31.40;99.90
20658;DHT22;10488;50.846;4.078;2023-06-10T13:10:24;31.40;99.90
20658;DHT22;10488;50.846;4.078;2023-06-10T13:12:51;31.60;99.90
20658;DHT22;10488;50.846;4.078;2023-06-10T13:15:17;31.30;99.90
20658;DHT22;10488;50.846;4.078;2023-06-10T13:17:46;31.40;99.90
20658;DHT22;10488;50.846;4.078;2023-06-10T13:20:14;31.40;99.90
20658;DHT22;10488;50.846;4.078;2023-06-10T13:22:41;31.30;99.90
20658;DHT22;10488;50.846;4.078;2023-06-10T13:25:07;31.20;99.90
20658;DHT22;10488;50.846;4.078;2023-06-10T13:27:34;31.20;99.90
20658;DHT22;10488;50.846;4.078;2023-06-10T13:30:00;31.00;99.90
20658;DHT22;10488;50.846;4.078;2023-06-10T13:32:26;31.20;99.90
20658;DHT22;10488;50.846;4.078;2023-06-10T13:34:52;31.10;99.90
20658;DHT22;10488;50.846;4.078;2023-06-10T13:37:19;31.00;99.90
20658;DHT22;10488;50.846;4.078;2023-06-10T13:39:45;31.10;99.90
20658;DHT22;10488;50.846;4.078;2023-06-10T13:42:17;31.10;99.90
20658;DHT22;10488;50.846;4.078;2023-06-10T13:44:43;31.30;99.90
20658;DHT22;10488;50.846;4.078;2023-06-10T13:47:08;31.30;99.90
20658;DHT22;10488;50.846;4.078;2023-06-10T13:49:34;31.40;99.90
20658;DHT22;10488;50.846;4.078;2023-06-10T13:52:00;31.50;99.90
20658;DHT22;10488;50.846;4.078;2023-06-10T13:54:26;31.40;99.90
20658;DHT22;10488;50.846;4.078;2023-06-10T13:56:53;31.50;99.90
20658;DHT22;10488;50.846;4.078;2023-06-10T13:59:19;31.40;99.90
20658;DHT22;10488;50.846;4.078;2023-06-10T14:01:45;31.40;99.90
20658;DHT22;10488;50.846;4.078;2023-06-10T14:04:11;31.40;99.90
20658;DHT22;10488;50.846;4.078;2023-06-10T14:06:37;31.40;99.90
20658;DHT22;10488;50.846;4.078;2023-06-10T14:09:03;31.50;99.90
20658;DHT22;10488;50.846;4.078;2023-06-10T14:11:29;31.40;99.90
20658;DHT22;10488;50.846;4.078;2023-06-10T14:13:54;31.60;99.90
20658;DHT22;10488;50.846;4.078;2023-06-10T14:16:24;31.80;99.90
20658;DHT22;10488;50.846;4.078;2023-06-10T14:18:50;31.60;99.90
20658;DHT22;10488;50.846;4.078;2023-06-10T14:21:19;31.40;99.90
20658;DHT22;10488;50.846;4.078;2023-06-10T14:23:45;31.30;99.90
20658;DHT22;10488;50.846;4.078;2023-06-10T14:26:11;31.40;99.90
20658;DHT22;10488;50.846;4.078;2023-06-10T14:28:37;31.40;99.90
20658;DHT22;10488;50.846;4.078;2023-06-10T14:31:02;31.40;99.90
20658;DHT22;10488;50.846;4.078;2023-06-10T14:33:28;31.40;99.90
20658;DHT22;10488;50.846;4.078;2023-06-10T14:35:55;31.50;99.90
20658;DHT22;10488;50.846;4.078;2023-06-10T14:38:20;31.60;99.90
20658;DHT22;10488;50.846;4.078;2023-06-10T14:40:46;31.60;99.90
20658;DHT22;10488;50.846;4.078;2023-06-10T14:43:11;31.60;99.90
20658;DHT22;10488;50.846;4.078;2023-06-10T14:45:38;31.40;99.90
20658;DHT22;10488;50.846;4.078;2023-06-10T14:48:05;31.40;99.90
20658;DHT22;10488;50.846;4.078;2023-06-10T14:50:31;31.30;99.90
20658;DHT22;10488;50.846;4.078;2023-06-10T14:53:01;31.20;99.90
20658;DHT22;10488;50.846;4.078;2023-06-10T14:55:27;31.20;99.90
20658;DHT22;10488;50.846;4.078;2023-06-10T14:57:52;31.00;99.90
20658;DHT22;10488;50.846;4.078;2023-06-10T15:00:18;31.00;99.90
20658;DHT22;10488;50.846;4.078;2023-06-10T15:02:50;31.00;99.90
20658;DHT22;10488;50.846;4.078;2023-06-10T15:05:17;31.00;99.90
20658;DHT22;10488;50.846;4.078;2023-06-10T15:07:44;31.00;99.90
20658;DHT22;10488;50.846;4.078;2023-06-10T15:10:10;30.90;99.90
20658;DHT22;10488;50.846;4.078;2023-06-10T15:12:36;30.90;99.90
20658;DHT22;10488;50.846;4.078;2023-06-10T15:15:02;31.10;99.90
20658;DHT22;10488;50.846;4.078;2023-06-10T15:17:28;31.10;99.90
20658;DHT22;10488;50.846;4.078;2023-06-10T15:19:54;31.00;99.90
20658;DHT22;10488;50.846;4.078;2023-06-10T15:22:20;31.00;99.90
20658;DHT22;10488;50.846;4.078;2023-06-10T15:24:45;31.10;99.90
20658;DHT22;10488;50.846;4.078;2023-06-10T15:27:11;31.10;99.90
20658;DHT22;10488;50.846;4.078;2023-06-10T15:29:37;31.00;99.90
20658;DHT22;10488;50.846;4.078;2023-06-10T15:32:03;31.30;99.90
20658;DHT22;10488;50.846;4.078;2023-06-10T15:34:28;31.10;99.90
20658;DHT22;10488;50.846;4.078;2023-06-10T15:36:54;31.10;99.90
20658;DHT22;10488;50.846;4.078;2023-06-10T15:39:20;31.10;99.90
20658;DHT22;10488;50.846;4.078;2023-06-10T15:41:45;30.90;99.90
20658;DHT22;10488;50.846;4.078;2023-06-10T15:44:11;30.90;99.90
20658;DHT22;10488;50.846;4.078;2023-06-10T15:46:37;31.10;99.90
20658;DHT22;10488;50.846;4.078;2023-06-10T15:49:03;31.10;99.90
20658;DHT22;10488;50.846;4.078;2023-06-10T15:51:29;31.10;99.90
20658;DHT22;10488;50.846;4.078;2023-06-10T15:53:55;30.90;99.90
20658;DHT22;10488;50.846;4.078;2023-06-10T15:56:21;30.80;99.90
20658;DHT22;10488;50.846;4.078;2023-06-10T15:58:47;30.70;99.90
20658;DHT22;10488;50.846;4.078;2023-06-10T16:01:13;30.60;99.90
20658;DHT22;10488;50.846;4.078;2023-06-10T16:03:40;30.60;99.90
20658;DHT22;10488;50.846;4.078;2023-06-10T16:06:06;30.50;99.90
20658;DHT22;10488;50.846;4.078;2023-06-10T16:08:32;30.40;99.90
20658;DHT22;10488;50.846;4.078;2023-06-10T16:10:58;30.40;99.90
20658;DHT22;10488;50.846;4.078;2023-06-10T16:13:24;30.50;99.90
20658;DHT22;10488;50.846;4.078;2023-06-10T16:15:49;30.60;99.90
20658;DHT22;10488;50.846;4.078;2023-06-10T16:18:15;30.80;99.90
20658;DHT22;10488;50.846;4.078;2023-06-10T16:20:40;30.70;99.90
20658;DHT22;10488;50.846;4.078;2023-06-10T16:23:06;30.60;99.90
20658;DHT22;10488;50.846;4.078;2023-06-10T16:25:32;30.60;99.90
20658;DHT22;10488;50.846;4.078;2023-06-10T16:28:00;30.60;99.90
20658;DHT22;10488;50.846;4.078;2023-06-10T16:30:27;30.70;99.90
20658;DHT22;10488;50.846;4.078;2023-06-10T16:32:53;30.70;99.90
20658;DHT22;10488;50.846;4.078;2023-06-10T16:35:18;30.50;99.90
20658;DHT22;10488;50.846;4.078;2023-06-10T16:37:44;30.60;99.90
20658;DHT22;10488;50.846;4.078;2023-06-10T16:40:10;30.60;99.90
20658;DHT22;10488;50.846;4.078;2023-06-10T16:42:36;30.70;99.90
20658;DHT22;10488;50.846;4.078;2023-06-10T16:45:02;30.80;99.90
20658;DHT22;10488;50.846;4.078;2023-06-10T16:47:28;30.80;99.90
20658;DHT22;10488;50.846;4.078;2023-06-10T16:49:54;30.80;99.90
20658;DHT22;10488;50.846;4.078;2023-06-10T16:52:19;30.90;99.90
20658;DHT22;10488;50.846;4.078;2023-06-10T16:54:45;31.00;99.90
20658;DHT22;10488;50.846;4.078;2023-06-10T16:57:11;31.20;99.90
20658;DHT22;10488;50.846;4.078;2023-06-10T16:59:36;31.20;99.90
20658;DHT22;10488;50.846;4.078;2023-06-10T17:02:02;31.30;99.90
20658;DHT22;10488;50.846;4.078;2023-06-10T17:04:28;31.00;99.90
20658;DHT22;10488;50.846;4.078;2023-06-10T17:06:54;31.00;99.90
20658;DHT22;10488;50.846;4.078;2023-06-10T17:09:20;30.90;99.90
20658;DHT22;10488;50.846;4.078;2023-06-10T17:11:45;30.80;99.90
20658;DHT22;10488;50.846;4.078;2023-06-10T17:14:11;30.80;99.90
20658;DHT22;10488;50.846;4.078;2023-06-10T17:16:37;30.70;99.90
20658;DHT22;10488;50.846;4.078;2023-06-10T17:19:03;30.60;99.90
20658;DHT22;10488;50.846;4.078;2023-06-10T17:21:29;30.50;99.90
20658;DHT22;10488;50.846;4.078;2023-06-10T17:23:54;30.50;99.90
20658;DHT22;10488;50.846;4.078;2023-06-10T17:26:20;30.50;99.90
20658;DHT22;10488;50.846;4.078;2023-06-10T17:28:47;30.50;99.90
20658;DHT22;10488;50.846;4.078;2023-06-10T17:31:13;30.50;99.90
20658;DHT22;10488;50.846;4.078;2023-06-10T17:33:38;30.50;99.90
20658;DHT22;10488;50.846;4.078;2023-06-10T17:36:05;30.50;99.90
20658;DHT22;10488;50.846;4.078;2023-06-10T17:38:30;30.30;99.90
20658;DHT22;10488;50.846;4.078;2023-06-10T17:40:56;30.00;99.90
20658;DHT22;10488;50.846;4.078;2023-06-10T17:43:22;29.80;99.90
20658;DHT22;10488;50.846;4.078;2023-06-10T17:45:49;29.70;99.90
20658;DHT22;10488;50.846;4.078;2023-06-10T17:48:15;29.70;99.90
20658;DHT22;10488;50.846;4.078;2023-06-10T17:50:41;29.70;99.90
20658;DHT22;10488;50.846;4.078;2023-06-10T17:53:07;29.60;99.90
20658;DHT22;10488;50.846;4.078;2023-06-10T17:55:34;29.60;99.90
20658;DHT22;10488;50.846;4.078;2023-06-10T17:58:00;29.60;99.90
20658;DHT22;10488;50.846;4.078;2023-06-10T18:00:26;29.60;99.90
20658;DHT22;10488;50.846;4.078;2023-06-10T18:02:52;29.50;99.90
20658;DHT22;10488;50.846;4.078;2023-06-10T18:05:18;29.30;99.90
20658;DHT22;10488;50.846;4.078;2023-06-10T18:07:44;29.40;99.90
20658;DHT22;10488;50.846;4.078;2023-06-10T18:10:10;29.50;99.90
20658;DHT22;10488;50.846;4.078;2023-06-10T18:12:35;29.40;99.90
20658;DHT22;10488;50.846;4.078;2023-06-10T18:15:01;29.40;99.90
20658;DHT22;10488;50.846;4.078;2023-06-10T18:17:27;29.40;99.90
20658;DHT22;10488;50.846;4.078;2023-06-10T18:19:53;29.20;99.90
20658;DHT22;10488;50.846;4.078;2023-06-10T18:22:19;29.10;99.90
20658;DHT22;10488;50.846;4.078;2023-06-10T18:24:44;29.00;99.90
20658;DHT22;10488;50.846;4.078;2023-06-10T18:27:12;29.00;99.90
20658;DHT22;10488;50.846;4.078;2023-06-10T18:29:38;28.70;99.90
20658;DHT22;10488;50.846;4.078;2023-06-10T18:32:04;28.60;99.90
20658;DHT22;10488;50.846;4.078;2023-06-10T18:34:32;28.60;99.90
20658;DHT22;10488;50.846;4.078;2023-06-10T18:36:57;28.80;99.90
20658;DHT22;10488;50.846;4.078;2023-06-10T18:39:23;28.70;99.90
20658;DHT22;10488;50.846;4.078;2023-06-10T18:41:48;28.60;99.90
20658;DHT22;10488;50.846;4.078;2023-06-10T18:44:14;28.40;99.90
20658;DHT22;10488;50.846;4.078;2023-06-10T18:46:40;28.20;99.90
20658;DHT22;10488;50.846;4.078;2023-06-10T18:49:06;28.20;99.90
20658;DHT22;10488;50.846;4.078;2023-06-10T18:51:31;28.00;99.90
20658;DHT22;10488;50.846;4.078;2023-06-10T18:53:57;27.80;99.90
20658;DHT22;10488;50.846;4.078;2023-06-10T18:56:22;27.60;99.90
20658;DHT22;10488;50.846;4.078;2023-06-10T18:58:48;27.30;99.90
20658;DHT22;10488;50.846;4.078;2023-06-10T19:01:15;27.20;99.90
20658;DHT22;10488;50.846;4.078;2023-06-10T19:03:41;27.10;99.90
20658;DHT22;10488;50.846;4.078;2023-06-10T19:06:07;27.10;99.90
20658;DHT22;10488;50.846;4.078;2023-06-10T19:08:32;26.80;99.90
20658;DHT22;10488;50.846;4.078;2023-06-10T19:10:58;26.80;99.90
20658;DHT22;10488;50.846;4.078;2023-06-10T19:13:24;26.70;99.90